createdAt,value
2023-06-21T00:00:12.450Z,454.00
2023-06-21T00:01:12.539Z,456.00
2023-06-21T00:02:11.483Z,459.00
2023-06-21T00:03:12.629Z,459.00
2023-06-21T00:04:11.643Z,459.00
2023-06-21T00:05:12.614Z,458.00
2023-06-21T00:06:12.661Z,463.00
2023-06-21T00:07:12.682Z,463.00
2023-06-21T00:08:12.655Z,461.00
2023-06-21T00:09:12.726Z,460.00
2023-06-21T00:10:12.689Z,457.00
2023-06-21T00:11:12.804Z,455.00
2023-06-21T00:12:12.780Z,456.00
2023-06-21T00:13:11.790Z,473.00
2023-06-21T00:14:12.917Z,450.00
2023-06-21T00:15:12.856Z,471.00
2023-06-21T00:16:12.913Z,473.00
2023-06-21T00:17:12.934Z,471.00
2023-06-21T00:18:12.996Z,469.00
2023-06-21T00:19:13.110Z,464.00
2023-06-21T00:20:13.088Z,464.00
2023-06-21T00:21:13.151Z,456.00
2023-06-21T00:22:12.159Z,466.00
2023-06-21T00:23:13.192Z,465.00
2023-06-21T00:24:13.254Z,470.00
2023-06-21T00:25:12.334Z,476.00
2023-06-21T00:26:13.359Z,467.00
2023-06-21T00:27:13.440Z,466.00
2023-06-21T00:28:13.353Z,466.00
2023-06-21T00:29:13.450Z,466.00
2023-06-21T00:30:13.435Z,463.00
2023-06-21T00:31:13.516Z,473.00
2023-06-21T00:32:13.516Z,453.00
2023-06-21T00:33:13.561Z,448.00
2023-06-21T00:34:13.555Z,449.00
2023-06-21T00:35:12.575Z,454.00
2023-06-21T00:36:12.537Z,457.00
2023-06-21T00:37:13.597Z,460.00
2023-06-21T00:38:12.598Z,459.00
2023-06-21T00:39:12.654Z,462.00
2023-06-21T00:40:13.744Z,461.00
2023-06-21T00:41:13.747Z,462.00
2023-06-21T00:42:13.798Z,460.00
2023-06-21T00:43:13.844Z,456.00
2023-06-21T00:44:13.859Z,457.00
2023-06-21T00:45:13.910Z,457.00
2023-06-21T00:46:13.980Z,457.00
2023-06-21T00:47:13.077Z,450.00
2023-06-21T00:48:14.062Z,451.00
2023-06-21T00:49:14.068Z,455.00
2023-06-21T00:50:14.136Z,453.00
2023-06-21T00:51:14.117Z,453.00
2023-06-21T00:52:13.137Z,456.00
2023-06-21T00:53:13.254Z,460.00
2023-06-21T00:54:14.266Z,464.00
2023-06-21T00:55:14.306Z,461.00
2023-06-21T00:56:14.395Z,450.00
2023-06-21T00:57:14.406Z,448.00
2023-06-21T00:58:14.466Z,455.00
2023-06-21T00:59:14.565Z,451.00
2023-06-21T01:00:13.572Z,473.00
2023-06-21T01:01:14.685Z,450.00
2023-06-21T01:02:14.798Z,459.00
2023-06-21T01:03:14.690Z,452.00
2023-06-21T01:04:14.682Z,457.00
2023-06-21T01:05:13.830Z,463.00
2023-06-21T01:06:14.813Z,458.00
2023-06-21T01:07:13.890Z,464.00
2023-06-21T01:08:13.945Z,469.00
2023-06-21T01:09:14.968Z,470.00
2023-06-21T01:10:15.025Z,465.00
2023-06-21T01:11:15.124Z,466.00
2023-06-21T01:12:15.130Z,465.00
2023-06-21T01:13:15.198Z,468.00
2023-06-21T01:14:15.292Z,476.00
2023-06-21T01:15:15.260Z,484.00
2023-06-21T01:16:14.306Z,489.00
2023-06-21T01:17:14.318Z,495.00
2023-06-21T01:18:15.263Z,503.00
2023-06-21T01:19:15.289Z,509.00
2023-06-21T01:20:15.335Z,512.00
2023-06-21T01:21:15.307Z,501.00
2023-06-21T01:22:15.336Z,494.00
2023-06-21T01:23:14.340Z,493.00
2023-06-21T01:24:14.450Z,491.00
2023-06-21T01:25:15.368Z,493.00
2023-06-21T01:26:15.471Z,491.00
2023-06-21T01:27:15.410Z,490.00
2023-06-21T01:28:15.468Z,488.00
2023-06-21T01:29:14.447Z,489.00
2023-06-21T01:30:14.499Z,490.00
2023-06-21T01:31:15.513Z,490.00
2023-06-21T01:32:15.536Z,485.00
2023-06-21T01:33:14.504Z,488.00
2023-06-21T01:34:15.591Z,486.00
2023-06-21T01:35:15.546Z,482.00
2023-06-21T01:36:15.538Z,481.00
2023-06-21T01:37:15.534Z,481.00
2023-06-21T01:38:14.596Z,480.00
2023-06-21T01:39:14.599Z,478.00
2023-06-21T01:40:14.570Z,478.00
2023-06-21T01:41:15.600Z,476.00
2023-06-21T01:42:15.652Z,473.00
2023-06-21T01:43:14.695Z,466.00
2023-06-21T01:44:15.754Z,471.00
2023-06-21T01:45:15.805Z,480.00
2023-06-21T01:46:15.806Z,490.00
2023-06-21T01:47:15.791Z,492.00
2023-06-21T01:48:14.836Z,495.00
2023-06-21T01:49:15.937Z,487.00
2023-06-21T01:50:15.927Z,494.00
2023-06-21T01:51:16.009Z,491.00
2023-06-21T01:52:14.984Z,483.00
2023-06-21T01:53:15.990Z,473.00
2023-06-21T01:54:16.046Z,469.00
2023-06-21T01:55:16.056Z,469.00
2023-06-21T01:56:16.088Z,467.00
2023-06-21T01:57:16.116Z,462.00
2023-06-21T01:58:15.100Z,462.00
2023-06-21T01:59:15.136Z,467.00
2023-06-21T02:00:15.136Z,480.00
2023-06-21T02:01:15.188Z,496.00
2023-06-21T02:02:16.199Z,501.00
2023-06-21T02:03:16.235Z,490.00
2023-06-21T02:04:16.326Z,477.00
2023-06-21T02:05:16.295Z,477.00
2023-06-21T02:06:16.337Z,484.00
2023-06-21T02:07:16.387Z,489.00
2023-06-21T02:08:16.417Z,489.00
2023-06-21T02:09:15.477Z,487.00
2023-06-21T02:10:15.532Z,486.00
2023-06-21T02:11:16.498Z,484.00
2023-06-21T02:12:16.532Z,483.00
2023-06-21T02:13:16.586Z,486.00
2023-06-21T02:14:16.582Z,487.00
2023-06-21T02:15:15.746Z,490.00
2023-06-21T02:16:16.639Z,488.00
2023-06-21T02:17:16.649Z,486.00
2023-06-21T02:18:16.706Z,490.00
2023-06-21T02:19:16.815Z,495.00
2023-06-21T02:20:16.824Z,501.00
2023-06-21T02:21:16.839Z,505.00
2023-06-21T02:22:16.919Z,506.00
2023-06-21T02:23:16.907Z,511.00
2023-06-21T02:24:16.987Z,514.00
2023-06-21T02:25:15.994Z,519.00
2023-06-21T02:26:16.036Z,519.00
2023-06-21T02:27:17.108Z,513.00
2023-06-21T02:28:17.048Z,505.00
2023-06-21T02:29:17.102Z,494.00
2023-06-21T02:30:16.137Z,488.00
2023-06-21T02:31:16.151Z,489.00
2023-06-21T02:32:17.180Z,490.00
2023-06-21T02:33:17.261Z,494.00
2023-06-21T02:34:16.265Z,487.00
2023-06-21T02:35:16.380Z,497.00
2023-06-21T02:36:17.424Z,500.00
2023-06-21T02:37:17.428Z,501.00
2023-06-21T02:38:17.540Z,504.00
2023-06-21T02:39:17.620Z,502.00
2023-06-21T02:40:17.630Z,498.00
2023-06-21T02:41:17.712Z,508.00
2023-06-21T02:42:16.841Z,513.00
2023-06-21T02:43:17.763Z,517.00
2023-06-21T02:44:17.824Z,516.00
2023-06-21T02:45:17.865Z,515.00
2023-06-21T02:46:17.862Z,508.00
2023-06-21T02:47:17.908Z,504.00
2023-06-21T02:48:17.917Z,506.00
2023-06-21T02:49:16.966Z,503.00
2023-06-21T02:50:16.945Z,499.00
2023-06-21T02:51:17.949Z,497.00
2023-06-21T02:52:18.003Z,493.00
2023-06-21T02:53:17.976Z,491.00
2023-06-21T02:54:18.017Z,489.00
2023-06-21T02:55:17.963Z,490.00
2023-06-21T02:56:17.984Z,487.00
2023-06-21T02:57:18.031Z,483.00
2023-06-21T02:58:18.033Z,481.00
2023-06-21T02:59:18.081Z,480.00
2023-06-21T03:00:18.089Z,487.00
2023-06-21T03:01:18.166Z,492.00
2023-06-21T03:02:18.185Z,497.00
2023-06-21T03:03:18.351Z,501.00
2023-06-21T03:04:18.274Z,499.00
2023-06-21T03:05:17.315Z,495.00
2023-06-21T03:06:18.423Z,495.00
2023-06-21T03:07:18.434Z,487.00
2023-06-21T03:08:18.460Z,482.00
2023-06-21T03:09:18.482Z,487.00
2023-06-21T03:10:18.624Z,493.00
2023-06-21T03:11:18.588Z,494.00
2023-06-21T03:12:18.658Z,500.00
2023-06-21T03:13:18.797Z,508.00
2023-06-21T03:14:18.781Z,500.00
2023-06-21T03:15:18.859Z,502.00
2023-06-21T03:16:18.907Z,502.00
2023-06-21T03:17:18.936Z,500.00
2023-06-21T03:18:19.005Z,502.00
2023-06-21T03:19:19.126Z,497.00
2023-06-21T03:20:18.123Z,489.00
2023-06-21T03:21:18.151Z,488.00
2023-06-21T03:22:18.197Z,490.00
2023-06-21T03:23:19.273Z,492.00
2023-06-21T03:24:19.296Z,490.00
2023-06-21T03:25:19.298Z,489.00
2023-06-21T03:26:18.372Z,485.00
2023-06-21T03:27:19.331Z,481.00
2023-06-21T03:28:19.390Z,478.00
2023-06-21T03:29:19.461Z,479.00
2023-06-21T03:30:19.593Z,480.00
2023-06-21T03:31:19.597Z,480.00
2023-06-21T03:32:19.701Z,481.00
2023-06-21T03:33:19.697Z,478.00
2023-06-21T03:34:19.642Z,477.00
2023-06-21T03:35:19.819Z,475.00
2023-06-21T03:36:19.813Z,474.00
2023-06-21T03:37:19.823Z,476.00
2023-06-21T03:38:19.825Z,475.00
2023-06-21T03:39:18.920Z,477.00
2023-06-21T03:40:19.949Z,489.00
2023-06-21T03:41:19.954Z,488.00
2023-06-21T03:42:18.949Z,484.00
2023-06-21T03:43:19.933Z,479.00
2023-06-21T03:44:19.958Z,479.00
2023-06-21T03:45:20.040Z,479.00
2023-06-21T03:46:20.064Z,481.00
2023-06-21T03:47:20.103Z,482.00
2023-06-21T03:48:20.072Z,487.00
2023-06-21T03:49:20.126Z,493.00
2023-06-21T03:50:20.235Z,521.00
2023-06-21T03:51:19.266Z,514.00
2023-06-21T03:52:20.293Z,504.00
2023-06-21T03:53:20.376Z,499.00
2023-06-21T03:54:20.472Z,506.00
2023-06-21T03:55:20.450Z,512.00
2023-06-21T03:56:20.439Z,524.00
2023-06-21T03:57:19.481Z,519.00
2023-06-21T03:58:19.513Z,516.00
2023-06-21T03:59:20.532Z,510.00
2023-06-21T04:00:19.575Z,497.00
2023-06-21T04:01:20.626Z,493.00
2023-06-21T04:02:20.596Z,493.00
2023-06-21T04:03:20.646Z,494.00
2023-06-21T04:04:20.728Z,492.00
2023-06-21T04:05:20.692Z,488.00
2023-06-21T04:06:20.702Z,487.00
2023-06-21T04:07:21.609Z,488.00
2023-06-21T04:08:19.789Z,489.00
2023-06-21T04:09:20.848Z,487.00
2023-06-21T04:10:20.843Z,489.00
2023-06-21T04:11:20.902Z,485.00
2023-06-21T04:12:20.927Z,487.00
2023-06-21T04:13:20.960Z,483.00
2023-06-21T04:14:20.973Z,480.00
2023-06-21T04:15:21.025Z,476.00
2023-06-21T04:16:21.088Z,476.00
2023-06-21T04:17:21.062Z,477.00
2023-06-21T04:18:20.079Z,477.00
2023-06-21T04:19:21.107Z,476.00
2023-06-21T04:20:20.091Z,476.00
2023-06-21T04:21:21.105Z,478.00
2023-06-21T04:22:20.153Z,478.00
2023-06-21T04:23:20.140Z,479.00
2023-06-21T04:24:21.223Z,479.00
2023-06-21T04:25:21.271Z,480.00
2023-06-21T04:26:20.286Z,478.00
2023-06-21T04:27:20.286Z,482.00
2023-06-21T04:28:21.308Z,487.00
2023-06-21T04:29:21.393Z,491.00
2023-06-21T04:30:21.332Z,517.00
2023-06-21T04:31:21.319Z,516.00
2023-06-21T04:32:20.357Z,510.00
2023-06-21T04:33:21.307Z,501.00
2023-06-21T04:34:20.353Z,500.00
2023-06-21T04:35:21.369Z,493.00
2023-06-21T04:36:21.382Z,492.00
2023-06-21T04:37:21.425Z,496.00
2023-06-21T04:38:21.459Z,494.00
2023-06-21T04:39:20.573Z,491.00
2023-06-21T04:40:21.561Z,491.00
2023-06-21T04:41:21.601Z,487.00
2023-06-21T04:42:21.667Z,483.00
2023-06-21T04:43:21.692Z,481.00
2023-06-21T04:44:21.712Z,481.00
2023-06-21T04:45:20.760Z,478.00
2023-06-21T04:46:21.879Z,478.00
2023-06-21T04:47:20.811Z,475.00
2023-06-21T04:48:21.835Z,477.00
2023-06-21T04:49:21.901Z,480.00
2023-06-21T04:50:29.044Z,479.00
2023-06-21T04:51:21.920Z,477.00
2023-06-21T04:52:21.918Z,480.00
2023-06-21T04:53:21.961Z,478.00
2023-06-21T04:54:20.923Z,476.00
2023-06-21T04:55:20.978Z,477.00
2023-06-21T04:56:21.869Z,478.00
2023-06-21T04:57:21.867Z,477.00
2023-06-21T04:58:20.882Z,477.00
2023-06-21T04:59:21.916Z,478.00
2023-06-21T05:00:20.895Z,479.00
2023-06-21T05:01:21.858Z,478.00
2023-06-21T05:02:21.882Z,480.00
2023-06-21T05:03:20.887Z,480.00
2023-06-21T05:04:21.814Z,483.00
2023-06-21T05:05:20.816Z,480.00
2023-06-21T05:06:21.861Z,479.00
2023-06-21T05:07:20.803Z,480.00
2023-06-21T05:08:21.806Z,483.00
2023-06-21T05:09:21.806Z,480.00
2023-06-21T05:10:21.787Z,478.00
2023-06-21T05:11:21.776Z,476.00
2023-06-21T05:12:20.772Z,476.00
2023-06-21T05:13:21.825Z,478.00
2023-06-21T05:14:21.760Z,478.00
2023-06-21T05:15:21.760Z,481.00
2023-06-21T05:16:21.748Z,481.00
2023-06-21T05:17:21.780Z,481.00
2023-06-21T05:18:21.729Z,479.00
2023-06-21T05:19:21.803Z,478.00
2023-06-21T05:20:21.721Z,475.00
2023-06-21T05:21:21.722Z,472.00
2023-06-21T05:22:21.710Z,469.00
2023-06-21T05:23:21.709Z,469.00
2023-06-21T05:24:21.740Z,470.00
2023-06-21T05:25:21.709Z,472.00
2023-06-21T05:26:21.677Z,474.00
2023-06-21T05:27:21.760Z,478.00
2023-06-21T05:28:20.681Z,475.00
2023-06-21T05:29:21.688Z,476.00
2023-06-21T05:30:21.684Z,477.00
2023-06-21T05:31:21.786Z,479.00
2023-06-21T05:32:21.784Z,483.00
2023-06-21T05:33:21.779Z,480.00
2023-06-21T05:34:21.888Z,481.00
2023-06-21T05:35:22.031Z,480.00
2023-06-21T05:36:20.973Z,475.00
2023-06-21T05:37:22.026Z,477.00
2023-06-21T05:38:22.065Z,473.00
2023-06-21T05:39:22.140Z,473.00
2023-06-21T05:40:22.179Z,480.00
2023-06-21T05:41:22.198Z,478.00
2023-06-21T05:42:22.273Z,477.00
2023-06-21T05:43:21.350Z,476.00
2023-06-21T05:44:21.317Z,479.00
2023-06-21T05:45:22.320Z,477.00
2023-06-21T05:46:22.468Z,481.00
2023-06-21T05:47:22.468Z,480.00
2023-06-21T05:48:22.545Z,477.00
2023-06-21T05:49:22.451Z,467.00
2023-06-21T05:50:21.544Z,464.00
2023-06-21T05:51:21.533Z,465.00
2023-06-21T05:52:22.615Z,466.00
2023-06-21T05:53:22.740Z,468.00
2023-06-21T05:54:22.669Z,472.00
2023-06-21T05:55:22.752Z,473.00
2023-06-21T05:56:22.816Z,474.00
2023-06-21T05:57:22.821Z,476.00
2023-06-21T05:58:22.927Z,487.00
2023-06-21T05:59:21.920Z,477.00
2023-06-21T06:00:23.802Z,475.00
2023-06-21T06:01:25.141Z,476.00
2023-06-21T06:02:23.072Z,481.00
2023-06-21T06:03:23.086Z,489.00
2023-06-21T06:04:23.022Z,499.00
2023-06-21T06:05:21.984Z,500.00
2023-06-21T06:06:21.979Z,521.00
2023-06-21T06:07:22.965Z,522.00
2023-06-21T06:08:22.973Z,506.00
2023-06-21T06:09:22.956Z,487.00
2023-06-21T06:10:22.941Z,492.00
2023-06-21T06:11:22.928Z,491.00
2023-06-21T06:12:22.995Z,482.00
2023-06-21T06:13:22.925Z,491.00
2023-06-21T06:14:23.393Z,606.00
2023-06-21T06:15:23.088Z,520.00
2023-06-21T06:16:22.906Z,494.00
2023-06-21T06:17:21.970Z,487.00
2023-06-21T06:18:21.907Z,483.00
2023-06-21T06:19:22.879Z,479.00
2023-06-21T06:20:21.906Z,472.00
2023-06-21T06:21:22.926Z,472.00
2023-06-21T06:22:22.908Z,476.00
2023-06-21T06:23:22.865Z,477.00
2023-06-21T06:24:21.875Z,476.00
2023-06-21T06:25:22.897Z,485.00
2023-06-21T06:26:22.868Z,484.00
2023-06-21T06:27:22.883Z,485.00
2023-06-21T06:28:22.833Z,486.00
2023-06-21T06:29:22.825Z,513.00
2023-06-21T06:30:22.866Z,508.00
2023-06-21T06:31:22.857Z,521.00
2023-06-21T06:32:22.841Z,623.00
2023-06-21T06:33:22.791Z,527.00
2023-06-21T06:34:22.788Z,538.00
2023-06-21T06:35:22.824Z,526.00
2023-06-21T06:36:22.817Z,530.00
2023-06-21T06:37:27.538Z,512.00
2023-06-21T06:38:22.773Z,493.00
2023-06-21T06:39:22.778Z,520.00
2023-06-21T06:40:22.756Z,490.00
2023-06-21T06:41:22.744Z,511.00
2023-06-21T06:42:22.776Z,509.00
2023-06-21T06:43:22.739Z,518.00
2023-06-21T06:44:21.762Z,538.00
2023-06-21T06:45:23.459Z,520.00
2023-06-21T06:46:22.735Z,486.00
2023-06-21T06:47:21.886Z,489.00
2023-06-21T06:48:22.719Z,495.00
2023-06-21T06:49:22.695Z,575.00
2023-06-21T06:50:21.783Z,527.00
2023-06-21T06:51:22.685Z,499.00
2023-06-21T06:52:22.806Z,470.00
2023-06-21T06:53:22.671Z,461.00
2023-06-21T06:54:22.723Z,470.00
2023-06-21T06:55:23.004Z,476.00
2023-06-21T06:56:22.643Z,482.00
2023-06-21T06:57:35.255Z,479.00
2023-06-21T06:58:22.622Z,471.00
2023-06-21T06:59:22.705Z,477.00
2023-06-21T07:00:22.969Z,491.00
2023-06-21T07:01:21.608Z,475.00
2023-06-21T07:02:22.633Z,481.00
2023-06-21T07:03:33.055Z,473.00
2023-06-21T07:04:22.824Z,474.00
2023-06-21T07:05:24.560Z,475.00
2023-06-21T07:06:22.640Z,482.00
2023-06-21T07:07:22.631Z,478.00
2023-06-21T07:08:22.683Z,470.00
2023-06-21T07:09:22.600Z,467.00
2023-06-21T07:10:22.620Z,492.00
2023-06-21T07:11:22.620Z,552.00
2023-06-21T07:12:22.583Z,490.00
2023-06-21T07:13:21.585Z,492.00
2023-06-21T07:14:22.605Z,472.00
2023-06-21T07:15:24.137Z,488.00
2023-06-21T07:16:22.551Z,491.00
2023-06-21T07:17:22.632Z,507.00
2023-06-21T07:18:22.954Z,484.00
2023-06-21T07:19:22.558Z,468.00
2023-06-21T07:20:22.589Z,487.00
2023-06-21T07:21:25.658Z,476.00
2023-06-21T07:22:22.565Z,477.00
2023-06-21T07:23:22.640Z,474.00
2023-06-21T07:24:23.028Z,471.00
2023-06-21T07:25:22.545Z,465.00
2023-06-21T07:26:25.291Z,469.00
2023-06-21T07:27:22.601Z,469.00
2023-06-21T07:28:22.482Z,470.00
2023-06-21T07:29:22.472Z,468.00
2023-06-21T07:30:22.507Z,467.00
2023-06-21T07:31:21.465Z,468.00
2023-06-21T07:32:22.605Z,467.00
2023-06-21T07:33:21.453Z,468.00
2023-06-21T07:34:22.452Z,468.00
2023-06-21T07:35:22.449Z,466.00
2023-06-21T07:36:22.435Z,466.00
2023-06-21T07:37:22.483Z,451.00
2023-06-21T07:38:22.439Z,449.00
2023-06-21T07:39:21.469Z,455.00
2023-06-21T07:40:22.431Z,451.00
2023-06-21T07:41:25.390Z,456.00
2023-06-21T07:42:22.557Z,453.00
2023-06-21T07:43:22.372Z,457.00
2023-06-21T07:44:21.413Z,466.00
2023-06-21T07:45:21.395Z,462.00
2023-06-21T07:46:21.588Z,454.00
2023-06-21T07:47:21.375Z,449.00
2023-06-21T07:48:22.384Z,462.00
2023-06-21T07:49:22.337Z,459.00
2023-06-21T07:50:23.283Z,462.00
2023-06-21T07:51:22.520Z,467.00
2023-06-21T07:52:22.516Z,466.00
2023-06-21T07:53:22.315Z,458.00
2023-06-21T07:54:22.303Z,451.00
2023-06-21T07:55:21.321Z,454.00
2023-06-21T07:56:22.535Z,464.00
2023-06-21T07:57:21.285Z,494.00
2023-06-21T07:58:22.275Z,532.00
2023-06-21T07:59:21.303Z,442.00
2023-06-21T08:00:21.281Z,438.00
2023-06-21T08:01:21.289Z,444.00
2023-06-21T08:02:22.380Z,447.00
2023-06-21T08:03:21.343Z,441.00
2023-06-21T08:04:22.311Z,443.00
2023-06-21T08:05:22.263Z,444.00
2023-06-21T08:06:22.285Z,441.00
2023-06-21T08:07:24.076Z,445.00
2023-06-21T08:08:22.522Z,455.00
2023-06-21T08:09:21.242Z,449.00
2023-06-21T08:10:22.269Z,450.00
2023-06-21T08:11:21.191Z,443.00
2023-06-21T08:12:22.216Z,445.00
2023-06-21T08:13:22.196Z,456.00
2023-06-21T08:14:22.185Z,456.00
2023-06-21T08:15:21.237Z,454.00
2023-06-21T08:16:22.168Z,448.00
2023-06-21T08:17:22.247Z,449.00
2023-06-21T08:18:21.185Z,475.00
2023-06-21T08:19:22.451Z,609.00
2023-06-21T08:20:22.204Z,483.00
2023-06-21T08:21:21.118Z,479.00
2023-06-21T08:22:22.121Z,451.00
2023-06-21T08:23:22.105Z,482.00
2023-06-21T08:24:21.162Z,483.00
2023-06-21T08:25:22.093Z,468.00
2023-06-21T08:26:24.086Z,473.00
2023-06-21T08:27:22.081Z,519.00
2023-06-21T08:28:22.102Z,469.00
2023-06-21T08:29:22.102Z,461.00
2023-06-21T08:30:22.086Z,472.00
2023-06-21T08:31:23.712Z,476.00
2023-06-21T08:32:22.285Z,475.00
2023-06-21T08:33:21.262Z,470.00
2023-06-21T08:34:22.273Z,453.00
2023-06-21T08:35:22.299Z,452.00
2023-06-21T08:36:21.362Z,447.00
2023-06-21T08:37:22.384Z,444.00
2023-06-21T08:38:28.033Z,442.00
2023-06-21T08:39:22.368Z,440.00
2023-06-21T08:40:22.378Z,438.00
2023-06-21T08:41:22.542Z,438.00
2023-06-21T08:42:22.352Z,435.00
2023-06-21T08:43:21.325Z,437.00
2023-06-21T08:44:22.377Z,440.00
2023-06-21T08:45:22.342Z,435.00
2023-06-21T08:46:22.370Z,437.00
2023-06-21T08:47:22.368Z,450.00
2023-06-21T08:48:22.293Z,457.00
2023-06-21T08:49:22.376Z,453.00
2023-06-21T08:50:21.454Z,454.00
2023-06-21T08:51:22.305Z,445.00
2023-06-21T08:52:21.261Z,443.00
2023-06-21T08:53:21.271Z,437.00
2023-06-21T08:54:21.268Z,435.00
2023-06-21T08:55:21.736Z,432.00
2023-06-21T08:56:22.562Z,430.00
2023-06-21T08:57:22.249Z,428.00
2023-06-21T08:58:21.270Z,428.00
2023-06-21T08:59:22.237Z,428.00
2023-06-21T09:00:22.332Z,432.00
2023-06-21T09:01:22.255Z,434.00
2023-06-21T09:02:22.311Z,430.00
2023-06-21T09:03:22.406Z,434.00
2023-06-21T09:04:22.423Z,436.00
2023-06-21T09:05:21.219Z,438.00
2023-06-21T09:06:21.184Z,444.00
2023-06-21T09:07:22.189Z,451.00
2023-06-21T09:08:21.214Z,438.00
2023-06-21T09:09:22.163Z,427.00
2023-06-21T09:10:22.229Z,428.00
2023-06-21T09:11:22.164Z,429.00
2023-06-21T09:12:22.158Z,433.00
2023-06-21T09:13:22.178Z,437.00
2023-06-21T09:14:22.258Z,432.00
2023-06-21T09:15:22.306Z,434.00
2023-06-21T09:16:22.453Z,432.00
2023-06-21T09:17:22.400Z,434.00
2023-06-21T09:18:22.367Z,437.00
2023-06-21T09:19:22.410Z,434.00
2023-06-21T09:20:22.442Z,433.00
2023-06-21T09:21:23.924Z,431.00
2023-06-21T09:22:22.477Z,433.00
2023-06-21T09:23:22.473Z,432.00
2023-06-21T09:24:22.456Z,436.00
2023-06-21T09:25:22.448Z,433.00
2023-06-21T09:26:22.423Z,436.00
2023-06-21T09:27:22.417Z,442.00
2023-06-21T09:28:22.397Z,447.00
2023-06-21T09:29:22.374Z,466.00
2023-06-21T09:30:36.092Z,455.00
2023-06-21T09:31:23.176Z,437.00
2023-06-21T09:32:22.590Z,433.00
2023-06-21T09:33:22.585Z,432.00
2023-06-21T09:34:22.418Z,438.00
2023-06-21T09:35:22.460Z,441.00
2023-06-21T09:36:21.509Z,443.00
2023-06-21T09:37:22.401Z,443.00
2023-06-21T09:38:22.333Z,435.00
2023-06-21T09:39:22.493Z,434.00
2023-06-21T09:40:22.339Z,431.00
2023-06-21T09:41:21.325Z,432.00
2023-06-21T09:42:21.337Z,433.00
2023-06-21T09:43:22.336Z,435.00
2023-06-21T09:44:22.362Z,489.00
2023-06-21T09:45:22.311Z,460.00
2023-06-21T09:46:22.276Z,441.00
2023-06-21T09:47:21.318Z,431.00
2023-06-21T09:48:21.598Z,432.00
2023-06-21T09:49:22.407Z,439.00
2023-06-21T09:50:22.406Z,447.00
2023-06-21T09:51:21.598Z,443.00
2023-06-21T09:52:22.402Z,440.00
2023-06-21T09:53:21.450Z,437.00
2023-06-21T09:54:22.448Z,436.00
2023-06-21T09:55:22.566Z,435.00
2023-06-21T09:56:22.562Z,430.00
2023-06-21T09:57:22.929Z,435.00
2023-06-21T09:58:21.638Z,438.00
2023-06-21T09:59:22.629Z,471.00
2023-06-21T10:00:21.676Z,443.00
2023-06-21T10:01:21.836Z,443.00
2023-06-21T10:02:22.823Z,437.00
2023-06-21T10:03:21.746Z,434.00
2023-06-21T10:04:22.805Z,431.00
2023-06-21T10:05:22.826Z,432.00
2023-06-21T10:06:21.803Z,434.00
2023-06-21T10:07:22.873Z,440.00
2023-06-21T10:08:22.841Z,440.00
2023-06-21T10:09:22.900Z,432.00
2023-06-21T10:10:22.938Z,427.00
2023-06-21T10:11:21.950Z,432.00
2023-06-21T10:12:22.973Z,434.00
2023-06-21T10:13:23.013Z,441.00
2023-06-21T10:14:22.048Z,439.00
2023-06-21T10:15:23.065Z,437.00
2023-06-21T10:16:23.075Z,436.00
2023-06-21T10:17:22.157Z,439.00
2023-06-21T10:18:23.200Z,440.00
2023-06-21T10:19:23.173Z,437.00
2023-06-21T10:20:23.201Z,436.00
2023-06-21T10:21:23.216Z,439.00
2023-06-21T10:22:22.270Z,435.00
2023-06-21T10:23:23.266Z,433.00
2023-06-21T10:24:22.291Z,433.00
2023-06-21T10:25:23.345Z,429.00
2023-06-21T10:26:23.357Z,430.00
2023-06-21T10:27:23.473Z,429.00
2023-06-21T10:28:23.446Z,427.00
2023-06-21T10:29:23.385Z,430.00
2023-06-21T10:30:23.428Z,438.00
2023-06-21T10:31:22.566Z,450.00
2023-06-21T10:32:22.605Z,441.00
2023-06-21T10:33:23.595Z,430.00
2023-06-21T10:34:23.209Z,434.00
2023-06-21T10:35:22.707Z,429.00
2023-06-21T10:36:22.819Z,427.00
2023-06-21T10:37:23.693Z,425.00
2023-06-21T10:38:22.736Z,426.00
2023-06-21T10:39:23.756Z,423.00
2023-06-21T10:40:24.180Z,427.00
2023-06-21T10:41:22.821Z,427.00
2023-06-21T10:42:22.851Z,430.00
2023-06-21T10:43:22.869Z,432.00
2023-06-21T10:44:24.954Z,435.00
2023-06-21T10:45:23.934Z,427.00
2023-06-21T10:46:23.149Z,428.00
2023-06-21T10:47:24.168Z,435.00
2023-06-21T10:48:24.012Z,438.00
2023-06-21T10:49:23.007Z,439.00
2023-06-21T10:50:24.016Z,435.00
2023-06-21T10:51:24.082Z,436.00
2023-06-21T10:52:24.143Z,433.00
2023-06-21T10:53:24.134Z,428.00
2023-06-21T10:54:24.158Z,425.00
2023-06-21T10:55:23.181Z,419.00
2023-06-21T10:56:24.230Z,425.00
2023-06-21T10:57:24.224Z,424.00
2023-06-21T10:58:23.254Z,423.00
2023-06-21T10:59:24.330Z,427.00
2023-06-21T11:00:23.349Z,435.00
2023-06-21T11:01:24.393Z,438.00
2023-06-21T11:02:24.438Z,443.00
2023-06-21T11:03:24.445Z,438.00
2023-06-21T11:04:23.540Z,437.00
2023-06-21T11:05:24.681Z,434.00
2023-06-21T11:06:23.612Z,433.00
2023-06-21T11:07:23.658Z,432.00
2023-06-21T11:08:23.694Z,431.00
2023-06-21T11:09:23.675Z,432.00
2023-06-21T11:10:23.682Z,433.00
2023-06-21T11:11:24.763Z,435.00
2023-06-21T11:12:24.819Z,435.00
2023-06-21T11:13:24.768Z,434.00
2023-06-21T11:14:23.835Z,436.00
2023-06-21T11:15:23.846Z,433.00
2023-06-21T11:16:24.897Z,438.00
2023-06-21T11:17:24.991Z,432.00
2023-06-21T11:18:25.002Z,433.00
2023-06-21T11:19:25.004Z,433.00
2023-06-21T11:20:24.021Z,432.00
2023-06-21T11:21:24.059Z,433.00
2023-06-21T11:22:24.086Z,431.00
2023-06-21T11:23:24.913Z,436.00
2023-06-21T11:24:25.135Z,433.00
2023-06-21T11:25:24.178Z,433.00
2023-06-21T11:26:25.157Z,427.00
2023-06-21T11:27:24.293Z,423.00
2023-06-21T11:28:24.258Z,430.00
2023-06-21T11:29:25.323Z,420.00
2023-06-21T11:30:25.354Z,419.00
2023-06-21T11:31:25.461Z,414.00
2023-06-21T11:32:24.388Z,422.00
2023-06-21T11:33:25.421Z,420.00
2023-06-21T11:34:24.414Z,420.00
2023-06-21T11:35:24.453Z,419.00
2023-06-21T11:36:24.492Z,420.00
2023-06-21T11:37:25.516Z,422.00
2023-06-21T11:38:25.562Z,428.00
2023-06-21T11:39:24.645Z,426.00
2023-06-21T11:40:25.821Z,422.00
2023-06-21T11:41:24.630Z,421.00
2023-06-21T11:42:24.665Z,421.00
2023-06-21T11:43:25.692Z,421.00
2023-06-21T11:44:25.703Z,418.00
2023-06-21T11:45:24.774Z,428.00
2023-06-21T11:46:25.781Z,421.00
2023-06-21T11:47:25.878Z,418.00
2023-06-21T11:48:24.920Z,419.00
2023-06-21T11:49:25.899Z,415.00
2023-06-21T11:50:26.322Z,420.00
2023-06-21T11:51:25.071Z,417.00
2023-06-21T11:52:25.045Z,414.00
2023-06-21T11:53:26.052Z,409.00
2023-06-21T11:54:25.098Z,411.00
2023-06-21T11:55:25.115Z,413.00
2023-06-21T11:56:25.169Z,413.00
2023-06-21T11:57:26.170Z,411.00
2023-06-21T11:58:26.230Z,413.00
2023-06-21T11:59:25.259Z,415.00
2023-06-21T12:00:25.321Z,416.00
2023-06-21T12:01:26.270Z,413.00
2023-06-21T12:02:25.446Z,413.00
2023-06-21T12:03:26.558Z,415.00
2023-06-21T12:04:25.492Z,417.00
2023-06-21T12:05:26.633Z,414.00
2023-06-21T12:06:26.431Z,415.00
2023-06-21T12:07:26.446Z,413.00
2023-06-21T12:08:26.890Z,411.00
2023-06-21T12:09:26.913Z,410.00
2023-06-21T12:10:26.958Z,411.00
2023-06-21T12:11:26.752Z,408.00
2023-06-21T12:12:26.962Z,413.00
2023-06-21T12:13:26.896Z,412.00
2023-06-21T12:14:26.803Z,412.00
2023-06-21T12:15:26.910Z,416.00
2023-06-21T12:16:26.104Z,413.00
2023-06-21T12:17:26.087Z,413.00
2023-06-21T12:18:26.190Z,413.00
2023-06-21T12:19:27.070Z,415.00
2023-06-21T12:20:27.322Z,417.00
2023-06-21T12:21:27.239Z,413.00
2023-06-21T12:22:26.122Z,414.00
2023-06-21T12:23:26.120Z,427.00
2023-06-21T12:24:26.165Z,419.00
2023-06-21T12:25:27.350Z,419.00
2023-06-21T12:26:26.259Z,423.00
2023-06-21T12:27:26.436Z,420.00
2023-06-21T12:28:26.433Z,421.00